Rechercher aéroport 
image banner adimage banner adimage banner ad
image banner ad

IA90 - Humboldt County Memorial Hospital

Situé à Humboldt, United States

ICAO - IA90, IATA -

Données fournies par Airmate  

Information générale

Coordonnées: N42°43'59" W94°13'52"
Élévation : 1102 feet MSL.
Variation magnétique : 04° East
Voir autres Aéroports à Iowa

Données opérationnelles

Special qualification required
Heure actuelle UTC:
Heure actuelle locale:
Météo à : KFOD - Fort Dodge Rgnl ( 20 km )
METAR: KFOD 270456Z AUTO 20004KT 10SM CLR 21/18 A3002 RMK AO2 SLP184 T02060178 403170183
TAF: KFOD 262320Z 2700/2724 20009KT P6SM FEW250
Voir NOTAMs / SUP AIP / TFR affectant cet aéroport [VIEW]
Fréquences de communication: [VIEW]

Pistes:

Coordonnées de l'aéroport

Adresse: Humboldt United States

Vue satellite de IA90